Time;durP1;ratioP1;P1;durP2;ratioP2;P2;SDS_P1;SDS_P2;PMS_P1;PMS_P2;Temp;Humidity;BMP_temperature;BMP_pressure;BME280_temperature;BME280_humidity;BME280_pressure;Samples;Min_cycle;Max_cycle;Signal;HPM_P1;HPM_P2
2022/08/25 00:01:58;;;;;;;13.63;6.50;;;;;;;;;;4991102;28;20632;-51
2022/08/25 00:04:25;;;;;;;7.90;6.70;;;;;;;;;;4992213;28;20829;-50
2022/08/25 00:06:54;;;;;;;7.53;6.20;;;;;;;;;;4992432;28;20472;-50
2022/08/25 00:09:21;;;;;;;6.00;4.50;;;;;;;;;;4995031;28;20427;-50
2022/08/25 00:11:48;;;;;;;5.07;4.67;;;;;;;;;;4996063;28;20924;-50
2022/08/25 00:14:15;;;;;;;10.00;4.20;;;;;;;;;;4995253;28;20421;-50
2022/08/25 00:16:42;;;;;;;8.50;3.80;;;;;;;;;;4996120;28;20422;-51
2022/08/25 00:19:10;;;;;;;4.80;3.80;;;;;;;;;;4995938;28;20865;-51
2022/08/25 00:21:36;;;;;;;5.97;3.67;;;;;;;;;;4996287;28;20462;-51
2022/08/25 00:24:03;;;;;;;8.60;4.00;;;;;;;;;;4996330;28;20435;-50
2022/08/25 00:26:29;;;;;;;7.60;3.67;;;;;;;;;;4995794;28;20421;-51
2022/08/25 00:28:56;;;;;;;4.03;3.73;;;;;;;;;;4995831;28;20432;-51
2022/08/25 00:31:22;;;;;;;4.47;3.33;;;;;;;;;;4995779;28;20434;-51
2022/08/25 00:33:49;;;;;;;4.37;3.40;;;;;;;;;;4995950;28;20969;-51
2022/08/25 00:36:16;;;;;;;7.10;3.60;;;;;;;;;;4995447;28;20448;-51
2022/08/25 00:38:43;;;;;;;6.50;3.43;;;;;;;;;;4995574;28;20431;-50
2022/08/25 00:41:10;;;;;;;3.70;3.40;;;;;;;;;;4995638;28;20462;-52
2022/08/25 00:43:59;;;;;;;7.03;3.17;;;;;;;;;;4993826;28;20416;-51
2022/08/25 00:46:28;;;;;;;6.90;3.57;;;;;;;;;;4989827;28;20494;-51
2022/08/25 00:48:59;;;;;;;3.47;3.20;;;;;;;;;;4995277;28;20434;-51
2022/08/25 00:51:29;;;;;;;6.77;4.03;;;;;;;;;;4995847;28;20419;-52
2022/08/25 00:53:56;;;;;;;4.27;3.80;;;;;;;;;;4995665;28;20400;-51
2022/08/25 00:56:22;;;;;;;5.23;3.80;;;;;;;;;;4995235;28;20456;-52
2022/08/25 00:58:48;;;;;;;4.20;3.20;;;;;;;;;;4994777;28;20501;-51
2022/08/25 01:01:14;;;;;;;5.77;3.53;;;;;;;;;;4994727;28;20523;-51
2022/08/25 01:03:40;;;;;;;7.00;4.43;;;;;;;;;;4995067;28;20410;-51
2022/08/25 01:06:08;;;;;;;11.33;3.80;;;;;;;;;;4995049;28;20423;-52
2022/08/25 01:08:34;;;;;;;5.50;3.90;;;;;;;;;;4994684;28;20440;-50
2022/08/25 01:11:04;;;;;;;4.10;3.80;;;;;;;;;;4994653;28;20451;-51
2022/08/25 01:13:35;;;;;;;4.47;4.17;;;;;;;;;;4994184;28;20911;-51
2022/08/25 01:16:01;;;;;;;4.13;3.83;;;;;;;;;;4993968;28;20871;-51
2022/08/25 01:18:28;;;;;;;6.70;4.60;;;;;;;;;;4994769;28;20460;-51
2022/08/25 01:20:58;;;;;;;4.47;4.07;;;;;;;;;;4994604;28;20507;-50
2022/08/25 01:23:24;;;;;;;4.73;4.33;;;;;;;;;;4995079;28;20404;-51
2022/08/25 01:25:53;;;;;;;5.03;4.53;;;;;;;;;;4994682;28;20922;-50
2022/08/25 01:28:20;;;;;;;4.30;3.90;;;;;;;;;;4994804;28;20412;-50
2022/08/25 01:30:46;;;;;;;3.90;3.60;;;;;;;;;;4994550;28;20420;-50
2022/08/25 01:33:13;;;;;;;4.63;4.23;;;;;;;;;;4994963;28;20400;-50
2022/08/25 01:35:40;;;;;;;5.87;4.00;;;;;;;;;;4994830;28;20427;-51
2022/08/25 01:38:06;;;;;;;4.23;3.83;;;;;;;;;;4994766;28;20408;-52
2022/08/25 01:40:33;;;;;;;4.73;4.03;;;;;;;;;;4994099;28;20463;-50
2022/08/25 01:43:08;;;;;;;4.50;4.20;;;;;;;;;;4994663;28;20418;-50
2022/08/25 01:45:35;;;;;;;6.10;4.27;;;;;;;;;;4992670;28;20920;-50
2022/08/25 01:48:01;;;;;;;5.87;4.13;;;;;;;;;;4994714;28;20416;-51
2022/08/25 01:50:28;;;;;;;3.70;3.40;;;;;;;;;;4994094;28;20424;-52
2022/08/25 01:53:07;;;;;;;4.10;3.80;;;;;;;;;;4994579;28;20521;-50
2022/08/25 01:55:50;;;;;;;5.63;3.83;;;;;;;;;;4994094;28;20789;-51
2022/08/25 01:58:20;;;;;;;4.60;3.87;;;;;;;;;;4994371;28;20486;-51
2022/08/25 02:00:47;;;;;;;4.90;3.77;;;;;;;;;;4993871;28;20458;-51
2022/08/25 02:03:13;;;;;;;4.43;4.03;;;;;;;;;;4994371;28;20886;-50
2022/08/25 02:05:39;;;;;;;5.27;4.00;;;;;;;;;;4993859;28;20911;-50
2022/08/25 02:08:05;;;;;;;4.90;4.43;;;;;;;;;;4994246;28;20414;-51
2022/08/25 02:10:32;;;;;;;4.70;4.23;;;;;;;;;;4993596;28;20788;-51
2022/08/25 02:12:58;;;;;;;4.47;3.97;;;;;;;;;;4994231;28;20435;-51
2022/08/25 02:15:24;;;;;;;5.17;4.50;;;;;;;;;;4992822;28;20436;-50
2022/08/25 02:17:50;;;;;;;7.83;4.50;;;;;;;;;;4994094;28;20459;-51
2022/08/25 02:20:16;;;;;;;4.00;3.60;;;;;;;;;;4993571;28;20455;-51
2022/08/25 02:22:42;;;;;;;6.00;5.40;;;;;;;;;;4993364;28;20416;-51
2022/08/25 02:25:09;;;;;;;8.03;5.07;;;;;;;;;;4993711;28;20447;-50
2022/08/25 02:27:35;;;;;;;5.43;4.93;;;;;;;;;;4993853;28;20806;-50
2022/08/25 02:30:01;;;;;;;5.43;4.53;;;;;;;;;;4993194;28;20502;-51
2022/08/25 02:32:27;;;;;;;4.37;4.07;;;;;;;;;;4993246;28;20416;-51
2022/08/25 02:34:53;;;;;;;5.93;4.20;;;;;;;;;;4993386;28;20454;-51
2022/08/25 02:37:19;;;;;;;5.10;4.47;;;;;;;;;;4993608;28;20471;-51
2022/08/25 02:39:45;;;;;;;6.13;5.10;;;;;;;;;;4992965;28;20442;-50
2022/08/25 02:42:12;;;;;;;4.80;4.20;;;;;;;;;;4993932;28;20400;-50
2022/08/25 02:44:38;;;;;;;8.90;5.00;;;;;;;;;;4991527;28;20412;-52
2022/08/25 02:47:04;;;;;;;5.87;4.60;;;;;;;;;;4993664;28;21022;-51
2022/08/25 02:49:30;;;;;;;4.60;4.20;;;;;;;;;;4993319;28;20428;-51
2022/08/25 02:51:59;;;;;;;4.80;4.40;;;;;;;;;;4993430;28;20478;-50
2022/08/25 02:54:25;;;;;;;5.90;4.43;;;;;;;;;;4992161;28;20456;-51
2022/08/25 02:56:51;;;;;;;7.63;4.70;;;;;;;;;;4993217;28;20780;-50
2022/08/25 02:59:18;;;;;;;5.50;5.00;;;;;;;;;;4992677;28;20448;-50
2022/08/25 03:01:44;;;;;;;5.27;4.77;;;;;;;;;;4993288;28;20459;-51
2022/08/25 03:04:10;;;;;;;6.70;4.47;;;;;;;;;;4993063;28;20451;-50
2022/08/25 03:06:36;;;;;;;5.00;4.50;;;;;;;;;;4993167;28;20428;-50
2022/08/25 03:09:02;;;;;;;8.20;4.53;;;;;;;;;;4992791;28;20908;-50
2022/08/25 03:11:28;;;;;;;4.50;4.17;;;;;;;;;;4993129;28;20438;-51
2022/08/25 03:13:55;;;;;;;6.93;5.40;;;;;;;;;;4993248;28;20518;-51
2022/08/25 03:16:21;;;;;;;4.90;4.50;;;;;;;;;;4990301;28;20529;-51
2022/08/25 03:18:47;;;;;;;4.77;4.47;;;;;;;;;;4992513;28;20438;-50
2022/08/25 03:21:14;;;;;;;4.70;4.40;;;;;;;;;;4992680;28;20467;-51
2022/08/25 03:23:41;;;;;;;4.97;4.57;;;;;;;;;;4992649;28;20986;-51
2022/08/25 03:28:54;;;;;;;6.00;4.77;;;;;;;;;;4992552;28;20537;-51
2022/08/25 03:31:21;;;;;;;5.27;4.77;;;;;;;;;;4992857;28;20797;-52
2022/08/25 03:33:47;;;;;;;5.47;5.00;;;;;;;;;;4992421;28;20418;-50
2022/08/25 03:36:14;;;;;;;6.43;4.87;;;;;;;;;;4992787;28;20417;-50
2022/08/25 03:38:40;;;;;;;4.87;4.57;;;;;;;;;;4992110;28;20423;-50
2022/08/25 03:41:17;;;;;;;4.63;4.23;;;;;;;;;;4992651;28;20494;-51
2022/08/25 03:43:43;;;;;;;6.10;4.20;;;;;;;;;;4992199;28;20403;-50
2022/08/25 03:46:15;;;;;;;5.10;4.70;;;;;;;;;;4989855;28;20518;-52
2022/08/25 03:48:41;;;;;;;10.33;5.17;;;;;;;;;;4991993;28;20874;-52
2022/08/25 03:51:07;;;;;;;8.07;5.07;;;;;;;;;;4992543;28;20506;-51
2022/08/25 03:53:33;;;;;;;5.23;4.73;;;;;;;;;;4992326;28;20846;-50
2022/08/25 03:55:59;;;;;;;6.47;4.83;;;;;;;;;;4992345;28;20423;-50
2022/08/25 03:58:26;;;;;;;5.33;4.83;;;;;;;;;;4992135;28;20423;-51
2022/08/25 04:00:52;;;;;;;5.07;4.60;;;;;;;;;;4992007;28;20829;-51
2022/08/25 04:03:18;;;;;;;5.23;4.83;;;;;;;;;;4992479;28;20426;-51
2022/08/25 04:05:45;;;;;;;6.03;5.43;;;;;;;;;;4992122;28;20771;-50
2022/08/25 04:08:11;;;;;;;7.27;6.37;;;;;;;;;;4992398;28;20895;-52
2022/08/25 04:10:37;;;;;;;6.33;5.70;;;;;;;;;;4991850;28;20636;-50
2022/08/25 04:13:03;;;;;;;6.20;5.40;;;;;;;;;;4992366;28;20410;-50
2022/08/25 04:15:29;;;;;;;4.90;4.50;;;;;;;;;;4990332;28;20479;-50
2022/08/25 04:17:55;;;;;;;6.00;5.27;;;;;;;;;;4992306;28;21014;-51
2022/08/25 04:20:21;;;;;;;6.60;5.57;;;;;;;;;;4991787;28;20467;-50
2022/08/25 04:22:47;;;;;;;6.57;5.90;;;;;;;;;;4993125;28;20743;-51
2022/08/25 04:25:13;;;;;;;6.60;6.00;;;;;;;;;;4991715;28;20433;-51
2022/08/25 04:27:39;;;;;;;9.47;5.60;;;;;;;;;;4992279;28;20441;-51
2022/08/25 04:30:05;;;;;;;6.20;5.53;;;;;;;;;;4991843;28;21091;-51
2022/08/25 04:32:31;;;;;;;10.80;5.87;;;;;;;;;;4991884;28;20423;-50
2022/08/25 04:34:58;;;;;;;6.73;5.30;;;;;;;;;;4992147;28;20804;-50
2022/08/25 04:37:23;;;;;;;5.03;4.63;;;;;;;;;;4991870;28;20415;-51
2022/08/25 04:39:49;;;;;;;8.73;5.57;;;;;;;;;;4991723;28;20433;-50
2022/08/25 04:42:15;;;;;;;5.80;5.30;;;;;;;;;;4992172;28;20427;-51
2022/08/25 04:44:41;;;;;;;6.60;5.17;;;;;;;;;;4992067;28;20399;-51
2022/08/25 04:47:09;;;;;;;9.00;5.70;;;;;;;;;;4990688;28;20499;-51
2022/08/25 04:49:36;;;;;;;8.83;5.60;;;;;;;;;;4991587;28;20436;-49
2022/08/25 04:52:02;;;;;;;8.80;6.20;;;;;;;;;;4992070;28;20400;-50
2022/08/25 04:54:28;;;;;;;6.70;5.97;;;;;;;;;;4993421;28;20466;-49
2022/08/25 04:56:54;;;;;;;6.87;6.00;;;;;;;;;;4994370;28;20480;-50
2022/08/25 04:59:19;;;;;;;6.60;6.00;;;;;;;;;;4994445;28;20545;-50
2022/08/25 05:01:46;;;;;;;7.30;6.27;;;;;;;;;;4995428;28;20466;-51
2022/08/25 05:04:13;;;;;;;7.00;6.10;;;;;;;;;;4995817;28;20397;-51
2022/08/25 05:06:39;;;;;;;7.10;6.40;;;;;;;;;;4995198;28;20403;-51
2022/08/25 05:09:05;;;;;;;8.03;6.47;;;;;;;;;;4994724;28;20429;-50
2022/08/25 05:11:32;;;;;;;6.50;5.90;;;;;;;;;;4994284;28;20434;-51
2022/08/25 05:13:59;;;;;;;7.13;6.03;;;;;;;;;;4995231;28;20470;-52
2022/08/25 05:16:26;;;;;;;6.90;6.27;;;;;;;;;;4993737;28;20454;-51
2022/08/25 05:18:53;;;;;;;13.77;7.73;;;;;;;;;;4993461;28;20609;-51
2022/08/25 05:21:20;;;;;;;13.67;7.37;;;;;;;;;;4994872;28;20469;-50
2022/08/25 05:23:46;;;;;;;13.17;8.20;;;;;;;;;;4994837;28;20523;-50
2022/08/25 05:26:15;;;;;;;8.30;7.33;;;;;;;;;;4994271;28;20894;-50
2022/08/25 05:28:41;;;;;;;8.20;6.53;;;;;;;;;;4993792;28;20786;-52
2022/08/25 05:31:08;;;;;;;10.03;5.90;;;;;;;;;;4993880;28;20949;-51
2022/08/25 05:33:35;;;;;;;7.83;6.37;;;;;;;;;;4994219;28;20407;-49
2022/08/25 05:36:01;;;;;;;8.07;7.30;;;;;;;;;;4994018;28;20423;-51
2022/08/25 05:38:27;;;;;;;6.10;4.93;;;;;;;;;;4993721;28;20718;-50
2022/08/25 05:40:56;;;;;;;6.60;6.00;;;;;;;;;;4993535;28;20464;-51
2022/08/25 05:43:23;;;;;;;9.83;6.77;;;;;;;;;;4993978;28;20431;-50
2022/08/25 05:45:49;;;;;;;9.00;7.40;;;;;;;;;;4985562;28;20441;-50
2022/08/25 05:48:15;;;;;;;7.20;6.50;;;;;;;;;;4992467;28;20416;-49
2022/08/25 05:50:41;;;;;;;8.60;5.97;;;;;;;;;;4993146;28;20436;-52
2022/08/25 05:53:07;;;;;;;6.33;5.70;;;;;;;;;;4993289;28;20426;-51
2022/08/25 05:55:34;;;;;;;6.80;5.90;;;;;;;;;;4993462;28;20859;-50
2022/08/25 05:58:00;;;;;;;6.70;5.67;;;;;;;;;;4993371;28;20408;-52
2022/08/25 06:00:26;;;;;;;5.80;5.30;;;;;;;;;;4993027;28;20563;-51
2022/08/25 06:02:52;;;;;;;7.80;5.23;;;;;;;;;;4993197;28;20446;-50
2022/08/25 06:05:21;;;;;;;6.50;5.40;;;;;;;;;;4992267;28;20527;-51
2022/08/25 06:07:48;;;;;;;5.77;5.17;;;;;;;;;;4993342;28;20970;-50
2022/08/25 06:10:15;;;;;;;9.43;5.53;;;;;;;;;;4992827;28;20476;-51
2022/08/25 06:12:45;;;;;;;6.77;5.17;;;;;;;;;;4993429;28;20443;-50
2022/08/25 06:15:15;;;;;;;8.57;5.37;;;;;;;;;;4992100;28;20427;-49
2022/08/25 06:17:41;;;;;;;10.30;6.10;;;;;;;;;;4992235;28;20439;-50
2022/08/25 06:20:28;;;;;;;5.20;4.73;;;;;;;;;;4992171;28;20447;-51
2022/08/25 06:22:54;;;;;;;13.90;6.20;;;;;;;;;;4992680;28;20450;-51
2022/08/25 06:25:21;;;;;;;12.63;5.80;;;;;;;;;;4993205;28;20431;-50
2022/08/25 06:27:47;;;;;;;6.00;5.40;;;;;;;;;;4993023;28;20408;-52
2022/08/25 06:30:14;;;;;;;10.87;5.40;;;;;;;;;;4992841;28;20434;-52
2022/08/25 06:32:41;;;;;;;8.07;5.10;;;;;;;;;;4993211;28;20411;-51
2022/08/25 06:35:09;;;;;;;5.73;4.90;;;;;;;;;;4992689;28;20830;-50
2022/08/25 06:37:35;;;;;;;10.13;6.43;;;;;;;;;;4992859;28;20465;-52
2022/08/25 06:40:01;;;;;;;7.30;6.33;;;;;;;;;;4993113;28;20565;-51
2022/08/25 06:42:27;;;;;;;5.70;5.20;;;;;;;;;;4992420;28;20784;-52
2022/08/25 06:44:53;;;;;;;10.10;7.80;;;;;;;;;;4992850;28;20923;-50
2022/08/25 06:47:20;;;;;;;7.20;5.93;;;;;;;;;;4991897;28;20435;-50
2022/08/25 06:49:46;;;;;;;11.93;5.40;;;;;;;;;;4992578;28;20514;-50
2022/08/25 06:52:12;;;;;;;8.73;5.60;;;;;;;;;;4993389;28;20458;-51
2022/08/25 06:54:39;;;;;;;8.33;6.97;;;;;;;;;;4992829;28;20428;-51
2022/08/25 06:57:05;;;;;;;8.57;6.50;;;;;;;;;;4993223;28;20440;-51
2022/08/25 06:59:31;;;;;;;5.70;5.23;;;;;;;;;;4992509;28;20512;-51
2022/08/25 07:01:58;;;;;;;6.40;5.23;;;;;;;;;;4993130;28;20455;-51
2022/08/25 07:04:24;;;;;;;7.33;5.50;;;;;;;;;;4993499;28;20990;-50
2022/08/25 07:06:50;;;;;;;6.70;5.17;;;;;;;;;;4992951;28;20507;-52
2022/08/25 07:09:16;;;;;;;12.10;6.00;;;;;;;;;;4992475;28;20486;-51
2022/08/25 07:11:42;;;;;;;6.03;5.53;;;;;;;;;;4992921;28;20502;-52
2022/08/25 07:14:10;;;;;;;6.50;5.33;;;;;;;;;;4992546;28;20920;-51
2022/08/25 07:16:37;;;;;;;5.87;5.10;;;;;;;;;;4990701;28;20950;-50
2022/08/25 07:19:03;;;;;;;6.10;5.50;;;;;;;;;;4991740;28;20865;-53
2022/08/25 07:21:30;;;;;;;6.70;5.17;;;;;;;;;;4992916;28;20456;-52
2022/08/25 07:23:57;;;;;;;7.67;5.13;;;;;;;;;;4991269;28;20417;-51
2022/08/25 07:26:26;;;;;;;7.20;5.00;;;;;;;;;;4992719;28;20396;-52
2022/08/25 07:28:52;;;;;;;8.27;6.37;;;;;;;;;;4992388;28;20427;-50
2022/08/25 07:31:18;;;;;;;7.03;4.83;;;;;;;;;;4992832;28;20415;-51
2022/08/25 07:36:30;;;;;;;7.87;6.00;;;;;;;;;;4992712;28;20407;-53
2022/08/25 07:38:56;;;;;;;11.30;5.43;;;;;;;;;;4992009;28;20999;-52
2022/08/25 07:41:22;;;;;;;5.90;5.33;;;;;;;;;;4992643;28;20974;-51
2022/08/25 07:43:48;;;;;;;7.03;5.53;;;;;;;;;;4992258;28;20427;-53
2022/08/25 07:46:14;;;;;;;6.43;4.80;;;;;;;;;;4991235;28;20438;-51
2022/08/25 07:48:40;;;;;;;7.43;5.13;;;;;;;;;;4991880;28;20495;-51
2022/08/25 07:51:07;;;;;;;9.03;4.87;;;;;;;;;;4992282;28;20440;-52
2022/08/25 07:53:33;;;;;;;5.90;4.47;;;;;;;;;;4992066;28;20959;-51
2022/08/25 07:55:59;;;;;;;5.50;4.60;;;;;;;;;;4992329;28;20416;-52
2022/08/25 07:58:25;;;;;;;5.10;4.60;;;;;;;;;;4991986;28;20408;-53
2022/08/25 08:00:52;;;;;;;5.07;4.27;;;;;;;;;;4991351;28;20466;-52
2022/08/25 08:03:19;;;;;;;7.03;5.00;;;;;;;;;;4991629;28;20440;-52
2022/08/25 08:05:45;;;;;;;8.70;5.00;;;;;;;;;;4983936;28;20416;-51
2022/08/25 08:08:11;;;;;;;7.00;5.10;;;;;;;;;;4990928;28;20419;-53
2022/08/25 08:10:41;;;;;;;6.20;4.77;;;;;;;;;;4991784;28;20443;-52
2022/08/25 08:13:08;;;;;;;4.20;3.83;;;;;;;;;;4991627;28;20415;-52
2022/08/25 08:15:34;;;;;;;6.97;5.07;;;;;;;;;;4990279;28;20428;-52
2022/08/25 08:18:00;;;;;;;10.67;4.77;;;;;;;;;;4991940;28;20551;-53
2022/08/25 08:20:27;;;;;;;7.03;4.70;;;;;;;;;;4989645;28;20463;-52
2022/08/25 08:22:53;;;;;;;6.73;4.73;;;;;;;;;;4991702;28;20567;-53
2022/08/25 08:25:19;;;;;;;6.60;4.60;;;;;;;;;;4990104;28;20787;-52
2022/08/25 08:27:45;;;;;;;6.70;5.43;;;;;;;;;;4991791;28;20913;-52
2022/08/25 08:30:12;;;;;;;8.33;4.40;;;;;;;;;;4994136;28;20431;-52
2022/08/25 08:32:38;;;;;;;6.70;4.43;;;;;;;;;;4994199;28;20400;-53
2022/08/25 08:35:05;;;;;;;5.87;4.97;;;;;;;;;;4994822;28;20471;-52
2022/08/25 08:37:31;;;;;;;6.87;4.60;;;;;;;;;;4994917;28;20412;-52
2022/08/25 08:40:00;;;;;;;4.77;4.37;;;;;;;;;;4995323;28;20412;-51
2022/08/25 08:42:41;;;;;;;7.30;5.30;;;;;;;;;;4995528;28;20495;-51
2022/08/25 08:45:20;;;;;;;5.33;4.13;;;;;;;;;;4995634;28;20478;-52
2022/08/25 08:48:09;;;;;;;4.90;4.50;;;;;;;;;;4992997;28;20847;-52
2022/08/25 08:50:44;;;;;;;6.20;4.90;;;;;;;;;;4961886;28;20468;-52
2022/08/25 08:53:16;;;;;;;5.40;4.43;;;;;;;;;;4975988;28;20904;-52
2022/08/25 08:55:43;;;;;;;4.90;4.40;;;;;;;;;;4976026;28;20928;-52
2022/08/25 08:58:17;;;;;;;6.90;4.40;;;;;;;;;;4991519;28;20419;-52
2022/08/25 09:00:45;;;;;;;5.30;4.80;;;;;;;;;;4995074;28;20467;-51
2022/08/25 09:03:15;;;;;;;6.30;4.20;;;;;;;;;;4995087;28;20843;-52
2022/08/25 09:05:45;;;;;;;7.80;5.00;;;;;;;;;;4995291;28;20404;-51
2022/08/25 09:08:12;;;;;;;4.33;3.93;;;;;;;;;;4994882;28;20427;-52
2022/08/25 09:10:49;;;;;;;4.67;4.33;;;;;;;;;;4994758;28;20947;-52
2022/08/25 09:13:32;;;;;;;4.43;4.13;;;;;;;;;;4994978;28;20424;-52
2022/08/25 09:19:02;;;;;;;7.13;4.80;;;;;;;;;;4993821;28;20817;-52
2022/08/25 09:21:47;;;;;;;4.83;4.50;;;;;;;;;;4994635;28;20459;-52
2022/08/25 09:24:16;;;;;;;4.60;4.30;;;;;;;;;;4983376;28;20455;-52
2022/08/25 09:26:42;;;;;;;7.13;4.63;;;;;;;;;;4994087;28;20416;-49
2022/08/25 09:29:12;;;;;;;4.47;4.07;;;;;;;;;;4993310;28;20996;-50
2022/08/25 09:31:40;;;;;;;6.17;5.00;;;;;;;;;;4994272;28;20180;-50
2022/08/25 09:34:12;;;;;;;4.50;4.10;;;;;;;;;;4994772;28;20412;-49
2022/08/25 09:36:38;;;;;;;4.53;4.13;;;;;;;;;;4994384;28;20428;-49
2022/08/25 09:39:05;;;;;;;10.33;8.90;;;;;;;;;;4994458;28;20435;-49
2022/08/25 09:41:35;;;;;;;4.80;4.40;;;;;;;;;;4994126;28;20971;-49
2022/08/25 09:44:01;;;;;;;5.53;4.70;;;;;;;;;;4994016;28;20946;-49
2022/08/25 09:46:28;;;;;;;12.93;4.93;;;;;;;;;;4994213;28;20510;-49
2022/08/25 09:49:09;;;;;;;5.93;4.47;;;;;;;;;;4993853;28;20455;-50
2022/08/25 09:51:38;;;;;;;4.23;3.70;;;;;;;;;;4994553;28;20406;-49
2022/08/25 09:54:16;;;;;;;5.47;4.57;;;;;;;;;;4994338;28;20450;-50
2022/08/25 09:56:53;;;;;;;6.23;4.10;;;;;;;;;;4993919;28;20407;-50
2022/08/25 09:59:19;;;;;;;3.53;3.33;;;;;;;;;;4991915;28;20525;-50
2022/08/25 10:01:52;;;;;;;10.03;3.40;;;;;;;;;;4994230;28;20455;-50
2022/08/25 10:04:25;;;;;;;3.63;3.33;;;;;;;;;;4994249;28;20169;-49
2022/08/25 10:06:51;;;;;;;3.50;3.30;;;;;;;;;;4993951;28;20446;-50
2022/08/25 10:09:25;;;;;;;3.20;2.97;;;;;;;;;;4993891;28;20622;-49
2022/08/25 10:11:51;;;;;;;5.00;3.23;;;;;;;;;;4994161;28;20165;-49
2022/08/25 10:14:46;;;;;;;4.27;3.23;;;;;;;;;;4993982;28;20458;-49
2022/08/25 10:17:14;;;;;;;2.93;2.50;;;;;;;;;;4985143;28;20510;-50
2022/08/25 10:19:40;;;;;;;3.50;3.20;;;;;;;;;;4993617;28;20466;-50
2022/08/25 10:22:33;;;;;;;2.77;2.67;;;;;;;;;;4994321;28;20467;-52
2022/08/25 10:24:59;;;;;;;2.80;2.60;;;;;;;;;;4987475;28;20424;-51
2022/08/25 10:27:42;;;;;;;3.20;2.70;;;;;;;;;;4993751;28;20400;-52
2022/08/25 10:30:18;;;;;;;3.13;2.83;;;;;;;;;;4990571;28;20456;-51
2022/08/25 10:32:53;;;;;;;3.27;3.07;;;;;;;;;;4993152;28;20462;-51
2022/08/25 10:35:22;;;;;;;3.20;2.93;;;;;;;;;;4992817;28;20966;-53
2022/08/25 10:38:00;;;;;;;3.40;3.20;;;;;;;;;;4992314;28;20667;-53
2022/08/25 10:40:48;;;;;;;3.00;2.80;;;;;;;;;;4993224;28;20471;-53
2022/08/25 10:43:30;;;;;;;5.03;3.37;;;;;;;;;;4993532;28;20397;-53
2022/08/25 10:46:02;;;;;;;2.83;2.63;;;;;;;;;;4993482;28;20918;-52
2022/08/25 10:48:46;;;;;;;2.83;2.63;;;;;;;;;;4993123;28;20415;-52
2022/08/25 10:51:28;;;;;;;2.70;2.50;;;;;;;;;;4993091;28;20400;-52
2022/08/25 10:54:15;;;;;;;4.80;2.63;;;;;;;;;;4993273;28;20771;-52
2022/08/25 10:56:44;;;;;;;2.80;2.47;;;;;;;;;;4993544;28;20876;-52
2022/08/25 10:59:15;;;;;;;3.03;2.87;;;;;;;;;;4992665;28;20444;-50
2022/08/25 11:01:41;;;;;;;7.17;3.20;;;;;;;;;;4991442;28;20532;-52
2022/08/25 11:04:13;;;;;;;3.50;3.23;;;;;;;;;;4993075;28;20400;-52
2022/08/25 11:06:47;;;;;;;3.37;2.80;;;;;;;;;;4992964;28;20409;-52
2022/08/25 11:09:15;;;;;;;3.60;3.00;;;;;;;;;;4990858;28;20454;-50
2022/08/25 11:11:46;;;;;;;3.10;2.90;;;;;;;;;;4992829;28;20467;-50
2022/08/25 11:14:17;;;;;;;3.50;3.20;;;;;;;;;;4993117;28;20404;-52
2022/08/25 11:17:01;;;;;;;4.83;3.10;;;;;;;;;;4992831;28;20403;-50
2022/08/25 11:19:35;;;;;;;3.20;3.00;;;;;;;;;;4992606;28;20470;-51
2022/08/25 11:22:06;;;;;;;4.03;2.93;;;;;;;;;;4992495;28;20443;-52
2022/08/25 11:24:52;;;;;;;5.40;3.20;;;;;;;;;;4992818;28;20408;-51
2022/08/25 11:27:21;;;;;;;3.93;3.00;;;;;;;;;;4992720;28;20444;-51
2022/08/25 11:30:05;;;;;;;2.87;2.60;;;;;;;;;;4992470;28;20426;-51
2022/08/25 11:32:34;;;;;;;6.50;3.10;;;;;;;;;;4992688;28;20393;-52
2022/08/25 11:35:01;;;;;;;3.50;3.20;;;;;;;;;;4992487;28;20404;-51
2022/08/25 11:37:29;;;;;;;3.33;3.13;;;;;;;;;;4992493;28;20498;-51
2022/08/25 11:40:05;;;;;;;4.40;3.10;;;;;;;;;;4989791;28;20464;-52
2022/08/25 11:42:31;;;;;;;3.27;3.00;;;;;;;;;;4992471;28;20968;-52
2022/08/25 11:45:10;;;;;;;3.33;2.50;;;;;;;;;;4992167;28;20483;-52
2022/08/25 11:47:54;;;;;;;2.50;2.40;;;;;;;;;;4992473;28;20189;-53
2022/08/25 11:50:26;;;;;;;3.57;3.10;;;;;;;;;;4992531;28;20474;-51
2022/08/25 11:52:55;;;;;;;3.67;2.90;;;;;;;;;;4992394;28;20741;-53
2022/08/25 11:55:36;;;;;;;6.57;2.97;;;;;;;;;;4992035;28;20391;-51
2022/08/25 11:58:20;;;;;;;4.43;3.10;;;;;;;;;;4992358;28;20455;-51
2022/08/25 12:00:46;;;;;;;3.30;3.00;;;;;;;;;;4991991;28;20494;-52
2022/08/25 12:03:30;;;;;;;5.03;3.50;;;;;;;;;;4993486;28;20915;-52
2022/08/25 12:06:15;;;;;;;4.10;3.17;;;;;;;;;;4996282;28;20717;-52
2022/08/25 12:08:59;;;;;;;3.23;3.00;;;;;;;;;;4996418;28;20782;-52
2022/08/25 12:11:38;;;;;;;7.67;3.10;;;;;;;;;;4992985;28;20764;-51
2022/08/25 12:14:11;;;;;;;3.40;2.70;;;;;;;;;;4995989;28;20751;-52
2022/08/25 12:16:40;;;;;;;3.80;3.00;;;;;;;;;;4994159;28;20428;-52
2022/08/25 12:19:24;;;;;;;3.30;3.10;;;;;;;;;;4995968;28;20424;-52
2022/08/25 12:21:50;;;;;;;3.40;3.10;;;;;;;;;;4996739;28;20890;-49
2022/08/25 12:24:20;;;;;;;3.57;3.23;;;;;;;;;;4994919;28;20431;-51
2022/08/25 12:26:57;;;;;;;8.33;3.20;;;;;;;;;;4995586;28;20491;-49
2022/08/25 12:29:23;;;;;;;4.27;3.97;;;;;;;;;;4995773;28;20478;-50
2022/08/25 12:31:49;;;;;;;3.73;3.10;;;;;;;;;;4996041;28;20416;-49
2022/08/25 12:34:24;;;;;;;2.97;2.77;;;;;;;;;;4995843;28;20169;-49
2022/08/25 12:37:17;;;;;;;4.63;2.87;;;;;;;;;;4995611;28;20464;-50
2022/08/25 12:40:03;;;;;;;3.87;3.07;;;;;;;;;;4993007;28;20439;-49
2022/08/25 12:42:31;;;;;;;3.30;2.97;;;;;;;;;;4994295;28;20467;-49
2022/08/25 12:45:15;;;;;;;3.40;3.10;;;;;;;;;;4994975;28;20875;-49
2022/08/25 12:47:46;;;;;;;3.40;3.20;;;;;;;;;;4995598;28;20475;-49
2022/08/25 12:50:33;;;;;;;3.70;3.40;;;;;;;;;;4995438;28;20518;-50
2022/08/25 12:53:07;;;;;;;4.50;3.23;;;;;;;;;;4995639;28;20388;-50
2022/08/25 12:55:33;;;;;;;4.10;3.40;;;;;;;;;;4995439;28;20396;-50
2022/08/25 12:58:00;;;;;;;5.20;3.43;;;;;;;;;;4995395;28;20404;-50
2022/08/25 13:00:28;;;;;;;3.63;3.43;;;;;;;;;;4995001;28;20817;-51
2022/08/25 13:03:03;;;;;;;3.40;3.20;;;;;;;;;;4995546;28;20786;-50
2022/08/25 13:05:35;;;;;;;4.23;3.83;;;;;;;;;;4995310;28;20487;-50
2022/08/25 13:08:01;;;;;;;3.37;2.87;;;;;;;;;;4995214;28;20844;-51
2022/08/25 13:10:33;;;;;;;12.43;3.00;;;;;;;;;;4994918;28;20479;-50
2022/08/25 13:13:03;;;;;;;4.97;3.40;;;;;;;;;;4994363;28;20613;-50
2022/08/25 13:15:34;;;;;;;3.40;3.10;;;;;;;;;;4994437;28;20566;-50
2022/08/25 13:18:18;;;;;;;3.10;2.90;;;;;;;;;;4995094;28;20427;-50
2022/08/25 13:20:45;;;;;;;4.00;3.20;;;;;;;;;;4994697;28;20455;-50
2022/08/25 13:23:11;;;;;;;4.20;3.50;;;;;;;;;;4995077;28;20471;-50
2022/08/25 13:25:46;;;;;;;3.43;3.20;;;;;;;;;;4994917;28;20401;-50
2022/08/25 13:28:20;;;;;;;3.90;3.23;;;;;;;;;;4994903;28;20412;-49
2022/08/25 13:30:55;;;;;;;6.87;3.00;;;;;;;;;;4994820;28;20621;-50
2022/08/25 13:33:22;;;;;;;3.90;3.50;;;;;;;;;;4994794;28;20420;-51
2022/08/25 13:37:26;;;;;;;3.40;3.10;;;;;;;;;;4994752;28;20921;-50
2022/08/25 13:38:35;;;;;;;4.20;3.77;;;;;;;;;;4994363;28;20416;-50
2022/08/25 13:41:02;;;;;;;3.87;3.47;;;;;;;;;;4994637;28;20455;-51
2022/08/25 13:43:28;;;;;;;3.90;3.70;;;;;;;;;;4992877;28;20660;-50
2022/08/25 13:45:55;;;;;;;3.57;3.37;;;;;;;;;;4993558;28;20800;-51
2022/08/25 13:48:32;;;;;;;3.70;3.27;;;;;;;;;;4993652;28;20416;-50
2022/08/25 13:51:07;;;;;;;4.53;3.30;;;;;;;;;;4994185;28;20916;-49
2022/08/25 13:53:33;;;;;;;4.63;3.43;;;;;;;;;;4994541;28;20487;-49
2022/08/25 13:56:00;;;;;;;3.23;2.93;;;;;;;;;;4994013;28;20447;-50
2022/08/25 13:58:31;;;;;;;6.53;3.13;;;;;;;;;;4994149;28;20181;-49
2022/08/25 14:01:02;;;;;;;3.47;3.17;;;;;;;;;;4994289;28;20460;-49
2022/08/25 14:03:38;;;;;;;3.00;2.80;;;;;;;;;;4994505;28;20432;-49
2022/08/25 14:06:13;;;;;;;3.83;3.53;;;;;;;;;;4993917;28;20466;-49
2022/08/25 14:09:04;;;;;;;4.17;3.63;;;;;;;;;;4993833;28;20424;-49
2022/08/25 14:11:32;;;;;;;5.00;3.40;;;;;;;;;;4994067;28;20416;-51
2022/08/25 14:14:02;;;;;;;7.60;3.37;;;;;;;;;;4993365;28;20432;-49
2022/08/25 14:16:28;;;;;;;3.87;3.60;;;;;;;;;;4993698;28;20424;-48
2022/08/25 14:18:55;;;;;;;5.27;2.87;;;;;;;;;;4993747;28;20475;-49
2022/08/25 14:21:32;;;;;;;3.63;3.20;;;;;;;;;;4993883;28;20950;-49
2022/08/25 14:23:59;;;;;;;3.77;3.47;;;;;;;;;;4992714;28;20443;-49
2022/08/25 14:26:25;;;;;;;4.30;3.57;;;;;;;;;;4992785;28;20416;-49
2022/08/25 14:28:51;;;;;;;3.50;3.20;;;;;;;;;;4993363;28;20426;-50
2022/08/25 14:31:23;;;;;;;4.17;3.40;;;;;;;;;;4993647;28;20983;-49
2022/08/25 14:33:52;;;;;;;4.43;3.67;;;;;;;;;;4993714;28;21287;-49
2022/08/25 14:36:18;;;;;;;4.33;3.97;;;;;;;;;;4993275;28;20424;-50
2022/08/25 14:38:44;;;;;;;7.10;3.53;;;;;;;;;;4993201;28;20789;-50
2022/08/25 14:41:11;;;;;;;4.13;3.70;;;;;;;;;;4993381;28;20466;-50
2022/08/25 14:43:37;;;;;;;8.33;3.50;;;;;;;;;;4992509;28;20427;-50
2022/08/25 14:46:09;;;;;;;5.27;4.87;;;;;;;;;;4993110;28;20413;-50
2022/08/25 14:48:39;;;;;;;8.50;3.93;;;;;;;;;;4993171;28;20463;-50
2022/08/25 14:51:05;;;;;;;4.00;3.70;;;;;;;;;;4993207;28;20976;-49
2022/08/25 14:53:31;;;;;;;4.93;4.60;;;;;;;;;;4993357;28;20408;-50
2022/08/25 14:55:57;;;;;;;3.60;3.40;;;;;;;;;;4992974;28;20452;-49
2022/08/25 14:58:23;;;;;;;4.00;3.70;;;;;;;;;;4992573;28;20450;-50
2022/08/25 15:00:50;;;;;;;5.37;4.50;;;;;;;;;;4992967;28;20526;-50
2022/08/25 15:03:33;;;;;;;5.73;5.20;;;;;;;;;;4993125;28;20411;-49
2022/08/25 15:06:00;;;;;;;4.17;3.87;;;;;;;;;;4993059;28;20404;-49